< Typhoon 196222 1962 Season Typhoon 196224 >
Typhoon 196223 (FREDA)
General InformationTrack Information on Google Maps || Disaster Info.ResourceGoogle EarthGE AnimationAtom FeedGeoJSON
Detalied Best Track (Time Zone = UTC)
Year Month Day Hour Lat. Long. Pressure (hPa) Wind (kt) Class Image Chart
1962 10 3 06 18.4 165.2 1004 0 2 -- Chart
1962 10 3 12 19.0 165.0 1002 0 2 -- Chart
1962 10 3 18 19.7 164.9 1002 0 2 -- Chart
1962 10 4 00 20.3 164.8 1002 0 2 -- Chart
1962 10 4 06 21.0 164.7 970 0 9 -- Chart
1962 10 4 12 21.6 164.5 960 0 9 -- Chart
1962 10 4 18 22.4 164.2 960 0 9 -- Chart
1962 10 5 00 23.0 163.6 960 0 9 -- Chart
1962 10 5 06 23.4 163.3 960 0 9 -- Chart
1962 10 5 12 23.6 162.9 960 0 9 -- Chart
1962 10 5 18 23.9 162.6 955 0 9 -- Chart
1962 10 6 00 23.5 162.5 950 0 9 -- Chart
1962 10 6 06 23.8 162.7 950 0 9 -- Chart
1962 10 6 12 24.5 162.9 950 0 9 -- Chart
1962 10 6 18 25.0 163.0 950 0 9 -- Chart
1962 10 7 00 25.8 163.2 960 0 9 -- Chart
1962 10 7 06 26.4 163.3 960 0 9 -- Chart
1962 10 7 12 26.9 163.4 960 0 9 -- Chart
1962 10 7 18 27.6 163.5 965 0 9 -- Chart
1962 10 8 00 28.6 163.9 970 0 9 -- Chart
1962 10 8 06 29.7 164.4 970 0 9 -- Chart
1962 10 8 12 30.7 165.0 970 0 9 -- Chart
1962 10 8 18 31.8 165.6 970 0 9 -- Chart
1962 10 9 00 32.7 166.5 970 0 9 -- Chart
1962 10 9 06 33.8 167.4 970 0 9 -- Chart
1962 10 9 12 35.0 169.0 980 0 9 -- Chart
1962 10 9 18 37.1 170.9 990 0 9 -- Chart
1962 10 10 00 39.0 172.9 990 0 9 -- Chart
1962 10 10 06 42.0 175.1 990 0 9 -- Chart
1962 10 10 12 44.0 179.3 992 0 9 -- Chart
1962 10 10 18 46.0 184.0 994 0 9 -- Chart
Japan Meteorological Agency Best Track Data | Correction Date : 1991-07-16
< Typhoon 196222 1962 Season Typhoon 196224 >

Help